createdAt,value
2017-03-03T00:00:27.127Z,10.39
2017-03-03T00:01:37.501Z,10.39
2017-03-03T00:02:48.275Z,10.51
2017-03-03T00:03:59.089Z,10.41
2017-03-03T00:05:09.472Z,10.44
2017-03-03T00:06:20.252Z,10.38
2017-03-03T00:07:30.655Z,10.42
2017-03-03T00:08:41.060Z,10.46
2017-03-03T00:09:51.853Z,10.42
2017-03-03T00:11:01.856Z,10.39
2017-03-03T00:12:12.229Z,10.36
2017-03-03T00:13:23.024Z,10.33
2017-03-03T00:14:33.422Z,10.33
2017-03-03T00:15:43.426Z,10.38
2017-03-03T00:16:53.838Z,10.33
2017-03-03T00:18:04.231Z,10.36
2017-03-03T00:19:14.646Z,10.36
2017-03-03T00:20:25.039Z,10.23
2017-03-03T00:21:35.820Z,10.28
2017-03-03T00:22:46.224Z,10.23
2017-03-03T00:23:56.625Z,10.15
2017-03-03T00:25:06.630Z,10.23
2017-03-03T00:26:17.015Z,10.14
2017-03-03T00:27:27.418Z,10.13
2017-03-03T00:28:37.394Z,9.99
2017-03-03T00:29:48.193Z,10.02
2017-03-03T00:30:58.172Z,9.95
2017-03-03T00:32:08.171Z,9.99
2017-03-03T00:33:18.583Z,9.92
2017-03-03T00:34:28.982Z,9.82
2017-03-03T00:35:38.581Z,9.92
2017-03-03T00:36:48.996Z,9.84
2017-03-03T00:37:59.395Z,9.88
2017-03-03T00:39:09.797Z,9.75
2017-03-03T00:40:20.185Z,9.75
2017-03-03T00:41:30.612Z,9.77
2017-03-03T00:42:41.410Z,9.71
2017-03-03T00:43:51.779Z,9.63
2017-03-03T00:45:02.592Z,9.64
2017-03-03T00:46:13.017Z,9.67
2017-03-03T00:47:23.400Z,9.6
2017-03-03T00:48:34.201Z,9.64
2017-03-03T00:49:44.972Z,9.55
2017-03-03T00:50:55.389Z,9.57
2017-03-03T00:52:05.812Z,9.64
2017-03-03T00:53:15.782Z,9.66
2017-03-03T00:54:26.576Z,9.55
2017-03-03T00:55:37.367Z,9.53
2017-03-03T00:56:48.170Z,9.52
2017-03-03T00:57:58.562Z,9.6
2017-03-03T00:59:09.327Z,9.59
2017-03-03T01:00:19.743Z,9.56
2017-03-03T01:01:30.538Z,9.48
2017-03-03T01:02:40.902Z,9.5
2017-03-03T01:03:51.303Z,9.45
2017-03-03T01:05:01.706Z,9.39
2017-03-03T01:06:12.499Z,9.44
2017-03-03T01:07:22.868Z,9.41
2017-03-03T01:08:33.675Z,9.39
2017-03-03T01:09:43.709Z,9.38
2017-03-03T01:10:54.520Z,9.42
2017-03-03T01:12:04.906Z,9.38
2017-03-03T01:13:15.304Z,9.38
2017-03-03T01:14:25.304Z,9.26
2017-03-03T01:15:36.100Z,9.37
2017-03-03T01:16:46.501Z,9.27
2017-03-03T01:17:57.279Z,9.21
2017-03-03T01:19:08.076Z,9.39
2017-03-03T01:20:18.466Z,9.32
2017-03-03T01:21:29.250Z,9.29
2017-03-03T01:22:39.626Z,9.39
2017-03-03T01:23:50.399Z,9.35
2017-03-03T01:25:01.165Z,9.3
2017-03-03T01:26:11.553Z,9.37
2017-03-03T01:27:21.938Z,9.41
2017-03-03T01:28:32.337Z,9.35
2017-03-03T01:29:42.363Z,9.24
2017-03-03T01:30:52.736Z,9.39
2017-03-03T01:32:03.520Z,9.32
2017-03-03T01:33:13.936Z,9.23
2017-03-03T01:34:24.697Z,9.3
2017-03-03T01:35:35.094Z,9.32
2017-03-03T01:36:45.104Z,9.23
2017-03-03T01:37:55.458Z,9.23
2017-03-03T01:39:05.444Z,9.2
2017-03-03T01:40:16.217Z,9.42
2017-03-03T01:41:26.603Z,9.34
2017-03-03T01:42:37.008Z,9.26
2017-03-03T01:43:47.417Z,9.41
2017-03-03T01:44:58.208Z,9.37
2017-03-03T01:46:08.635Z,9.29
2017-03-03T01:47:18.621Z,9.37
2017-03-03T01:48:27.834Z,9.41
2017-03-03T01:49:38.611Z,9.35
2017-03-03T01:50:48.596Z,9.34
2017-03-03T01:51:58.588Z,9.27
2017-03-03T01:53:09.367Z,9.24
2017-03-03T01:54:19.375Z,9.29
2017-03-03T01:55:29.389Z,9.35
2017-03-03T01:56:39.386Z,9.37
2017-03-03T01:57:50.167Z,9.3
2017-03-03T01:59:00.567Z,9.35
2017-03-03T02:00:11.356Z,9.34
2017-03-03T02:01:21.742Z,9.24
2017-03-03T02:02:32.125Z,9.37
2017-03-03T02:03:42.897Z,9.32
2017-03-03T02:04:52.896Z,9.27
2017-03-03T02:06:03.283Z,9.24
2017-03-03T02:07:14.057Z,9.39
2017-03-03T02:08:24.835Z,9.24
2017-03-03T02:09:35.219Z,9.32
2017-03-03T02:10:46.009Z,9.39
2017-03-03T02:11:56.791Z,9.37
2017-03-03T02:13:07.191Z,9.29
2017-03-03T02:14:17.983Z,9.26
2017-03-03T02:15:28.399Z,9.38
2017-03-03T02:16:38.792Z,9.27
2017-03-03T02:17:49.590Z,9.29
2017-03-03T02:18:59.987Z,9.3
2017-03-03T02:20:10.767Z,9.29
2017-03-03T02:21:21.568Z,9.32
2017-03-03T02:22:32.331Z,9.41
2017-03-03T02:23:42.695Z,9.34
2017-03-03T02:24:53.107Z,9.29
2017-03-03T02:26:03.874Z,9.34
2017-03-03T02:27:14.647Z,9.34
2017-03-03T02:28:24.653Z,9.3
2017-03-03T02:29:35.015Z,9.35
2017-03-03T02:30:45.421Z,9.3
2017-03-03T02:31:55.410Z,9.35
2017-03-03T02:33:05.837Z,9.45
2017-03-03T02:34:15.832Z,9.29
2017-03-03T02:35:25.819Z,9.35
2017-03-03T02:36:36.598Z,9.37
2017-03-03T02:37:47.392Z,9.38
2017-03-03T02:38:57.768Z,9.41
2017-03-03T02:40:08.557Z,9.45
2017-03-03T02:41:19.331Z,9.41
2017-03-03T02:42:30.094Z,9.47
2017-03-03T02:43:40.490Z,9.39
2017-03-03T02:44:51.295Z,9.42
2017-03-03T02:46:01.278Z,9.5
2017-03-03T02:47:11.678Z,9.53
2017-03-03T02:48:22.061Z,9.5
2017-03-03T02:49:32.855Z,9.52
2017-03-03T02:50:43.243Z,9.45
2017-03-03T02:51:53.631Z,9.44
2017-03-03T02:53:04.428Z,9.45
2017-03-03T02:54:14.801Z,9.47
2017-03-03T02:55:25.195Z,9.48
2017-03-03T02:56:35.994Z,9.44
2017-03-03T02:57:46.358Z,9.53
2017-03-03T02:58:56.348Z,9.41
2017-03-03T03:00:07.134Z,9.53
2017-03-03T03:01:17.925Z,9.47
2017-03-03T03:32:40.767Z,5.87
2017-03-03T03:33:51.533Z,5.81
2017-03-03T03:35:02.302Z,5.81
2017-03-03T03:36:12.666Z,5.82
2017-03-03T03:37:23.428Z,5.89
2017-03-03T03:38:33.400Z,6.03
2017-03-03T03:39:43.807Z,6.14
2017-03-03T03:40:53.786Z,6.28
2017-03-03T03:42:04.546Z,6.43
2017-03-03T03:43:15.326Z,6.61
2017-03-03T03:44:26.133Z,6.65
2017-03-03T03:45:36.526Z,6.93
2017-03-03T03:46:47.291Z,7
2017-03-03T03:47:58.062Z,7.12
2017-03-03T03:49:08.854Z,7.33
2017-03-03T03:50:19.626Z,7.37
2017-03-03T03:51:30.395Z,7.51
2017-03-03T03:52:40.786Z,7.67
2017-03-03T03:53:51.182Z,7.77
2017-03-03T03:55:01.165Z,7.89
2017-03-03T03:56:11.556Z,7.98
2017-03-03T03:57:21.936Z,8.01
2017-03-03T03:58:32.340Z,8.14
2017-03-03T03:59:43.138Z,8.13
2017-03-03T04:00:53.937Z,8.16
2017-03-03T04:02:04.320Z,8.22
2017-03-03T04:03:14.712Z,8.31
2017-03-03T04:04:25.493Z,8.35
2017-03-03T04:05:36.286Z,8.39
2017-03-03T04:06:46.669Z,8.47
2017-03-03T04:07:56.310Z,8.42
2017-03-03T04:09:06.706Z,8.43
2017-03-03T04:10:16.313Z,8.47
2017-03-03T04:11:26.701Z,8.49
2017-03-03T04:12:37.485Z,8.5
2017-03-03T04:13:47.467Z,8.49
2017-03-03T04:14:57.469Z,8.44
2017-03-03T04:16:07.889Z,8.44
2017-03-03T04:17:18.317Z,8.46
2017-03-03T04:18:28.675Z,8.43
2017-03-03T04:19:39.106Z,8.61
2017-03-03T04:20:49.488Z,8.58
2017-03-03T04:21:59.917Z,8.54
2017-03-03T04:23:09.926Z,8.49
2017-03-03T04:24:20.773Z,8.58
2017-03-03T04:25:31.563Z,8.6
2017-03-03T04:26:42.333Z,8.53
2017-03-03T04:27:52.339Z,8.5
2017-03-03T04:29:02.760Z,8.64
2017-03-03T04:30:13.546Z,8.6
2017-03-03T04:31:23.916Z,8.6
2017-03-03T04:32:34.295Z,8.67
2017-03-03T04:33:45.324Z,8.62
2017-03-03T04:34:55.701Z,8.67
2017-03-03T04:36:06.092Z,8.62
2017-03-03T04:37:16.884Z,8.65
2017-03-03T04:38:27.268Z,8.69
2017-03-03T04:39:38.030Z,8.68
2017-03-03T04:40:48.817Z,8.68
2017-03-03T04:41:59.598Z,8.67
2017-03-03T04:43:10.367Z,8.69
2017-03-03T04:44:20.782Z,8.6
2017-03-03T04:45:30.774Z,8.71
2017-03-03T04:46:41.156Z,8.64
2017-03-03T04:47:51.930Z,8.69
2017-03-03T04:49:02.322Z,8.6
2017-03-03T04:50:12.695Z,8.69
2017-03-03T04:51:23.471Z,8.67
2017-03-03T04:52:34.278Z,8.58
2017-03-03T04:53:44.684Z,8.64
2017-03-03T04:54:55.085Z,8.62
2017-03-03T04:56:05.079Z,8.71
2017-03-03T04:57:15.867Z,8.76
2017-03-03T04:58:26.260Z,8.67
2017-03-03T04:59:37.039Z,8.71
2017-03-03T05:00:47.417Z,8.68
2017-03-03T05:01:57.821Z,8.76
2017-03-03T05:03:08.595Z,8.72
2017-03-03T05:04:18.591Z,8.77
2017-03-03T05:05:28.953Z,8.71
2017-03-03T05:06:39.722Z,8.83
2017-03-03T05:07:50.130Z,8.76
2017-03-03T05:09:00.887Z,8.82
2017-03-03T05:10:11.669Z,8.69
2017-03-03T05:11:21.268Z,8.8
2017-03-03T05:12:32.061Z,8.83
2017-03-03T05:13:42.436Z,8.86
2017-03-03T05:14:52.428Z,8.82
2017-03-03T05:16:03.202Z,8.79
2017-03-03T05:17:13.589Z,8.72
2017-03-03T05:18:23.981Z,8.77
2017-03-03T05:19:34.389Z,8.83
2017-03-03T05:20:45.207Z,8.82
2017-03-03T05:21:55.622Z,8.79
2017-03-03T05:23:06.399Z,8.77
2017-03-03T05:24:16.781Z,8.69
2017-03-03T05:25:26.766Z,8.72
2017-03-03T05:26:37.554Z,8.72
2017-03-03T05:27:47.561Z,8.72
2017-03-03T05:28:58.356Z,8.74
2017-03-03T05:30:09.120Z,8.64
2017-03-03T05:31:19.912Z,8.68
2017-03-03T05:32:30.313Z,8.68
2017-03-03T05:33:41.111Z,8.64
2017-03-03T05:34:51.904Z,8.62
2017-03-03T05:36:01.533Z,8.64
2017-03-03T05:37:11.531Z,8.65
2017-03-03T05:38:21.942Z,8.69
2017-03-03T05:39:32.334Z,8.62
2017-03-03T05:40:41.957Z,8.67
2017-03-03T05:41:52.368Z,8.69
2017-03-03T05:43:02.354Z,8.65
2017-03-03T05:44:13.134Z,8.69
2017-03-03T05:45:23.139Z,8.69
2017-03-03T05:46:33.935Z,8.72
2017-03-03T05:47:44.718Z,8.72
2017-03-03T05:48:55.141Z,8.82
2017-03-03T05:50:05.545Z,8.77
2017-03-03T05:51:16.355Z,8.76
2017-03-03T05:52:26.352Z,8.89
2017-03-03T05:53:37.119Z,8.94
2017-03-03T05:54:47.137Z,9.03
2017-03-03T05:55:57.898Z,9.05
2017-03-03T05:57:08.669Z,9.05
2017-03-03T05:58:18.650Z,9.21
2017-03-03T05:59:27.874Z,9.2
2017-03-03T06:00:38.275Z,9.3
2017-03-03T06:01:49.076Z,9.24
2017-03-03T06:02:59.844Z,9.32
2017-03-03T06:04:10.631Z,9.48
2017-03-03T06:05:20.619Z,9.53
2017-03-03T06:06:31.003Z,9.57
2017-03-03T06:07:41.387Z,9.55
2017-03-03T06:08:51.378Z,9.7
2017-03-03T06:10:02.154Z,9.78
2017-03-03T06:11:13.156Z,9.75
2017-03-03T06:12:23.956Z,9.82
2017-03-03T06:13:33.939Z,9.81
2017-03-03T06:14:44.720Z,9.84
2017-03-03T06:15:55.124Z,9.95
2017-03-03T06:17:05.916Z,10
2017-03-03T06:18:16.290Z,10.07
2017-03-03T06:19:26.269Z,10.05
2017-03-03T06:20:36.269Z,10.08
2017-03-03T06:21:47.053Z,10.26
2017-03-03T06:22:57.826Z,10.23
2017-03-03T06:24:08.205Z,10.42
2017-03-03T06:25:18.194Z,10.52
2017-03-03T06:26:28.574Z,10.61
2017-03-03T06:27:39.358Z,10.67
2017-03-03T06:28:49.731Z,10.77
2017-03-03T06:30:00.522Z,10.87
2017-03-03T06:31:10.913Z,10.98
2017-03-03T06:32:21.285Z,11.12
2017-03-03T06:33:32.072Z,11.3
2017-03-03T06:34:42.046Z,11.24
2017-03-03T06:35:52.835Z,11.34
2017-03-03T06:37:03.627Z,11.45
2017-03-03T06:38:13.994Z,11.39
2017-03-03T06:39:24.014Z,11.49
2017-03-03T06:40:34.807Z,11.52
2017-03-03T06:41:45.584Z,11.49
2017-03-03T06:42:55.984Z,11.6
2017-03-03T06:44:06.366Z,11.57
2017-03-03T06:45:16.375Z,11.66
2017-03-03T06:46:25.975Z,11.64
2017-03-03T06:47:36.377Z,11.67
2017-03-03T06:48:47.172Z,11.66
2017-03-03T06:49:57.956Z,11.82
2017-03-03T06:51:07.956Z,11.75
2017-03-03T06:52:18.349Z,11.78
2017-03-03T06:53:28.357Z,11.85
2017-03-03T06:54:39.146Z,11.81
2017-03-03T06:55:49.529Z,11.82
2017-03-03T06:56:59.920Z,11.82
2017-03-03T06:58:10.303Z,11.84
2017-03-03T06:59:21.070Z,11.82
2017-03-03T07:00:31.471Z,11.94
2017-03-03T07:01:41.852Z,11.84
2017-03-03T07:02:52.239Z,11.89
2017-03-03T07:04:02.607Z,11.95
2017-03-03T07:05:12.992Z,12.01
2017-03-03T07:06:23.407Z,12.13
2017-03-03T07:07:34.211Z,12.16
2017-03-03T07:08:44.629Z,12.25
2017-03-03T07:09:55.400Z,12.34
2017-03-03T07:11:05.804Z,12.37
2017-03-03T07:12:16.606Z,12.45
2017-03-03T07:13:27.030Z,12.47
2017-03-03T07:14:37.827Z,12.43
2017-03-03T07:15:48.605Z,12.43
2017-03-03T07:16:59.018Z,12.43
2017-03-03T07:18:09.805Z,12.53
2017-03-03T07:19:20.252Z,12.55
2017-03-03T07:20:30.646Z,12.53
2017-03-03T07:28:02.666Z,13.06
2017-03-03T07:29:13.064Z,13.13
2017-03-03T07:30:23.436Z,13.31
2017-03-03T07:31:33.842Z,13.36
2017-03-03T07:32:44.213Z,13.44
2017-03-03T07:33:55.015Z,13.45
2017-03-03T07:35:05.411Z,13.5
2017-03-03T07:36:15.420Z,13.65
2017-03-03T07:37:25.419Z,13.55
2017-03-03T07:38:36.234Z,13.68
2017-03-03T07:39:46.634Z,13.75
2017-03-03T07:40:57.431Z,13.81
2017-03-03T07:42:07.836Z,13.88
2017-03-03T07:43:18.227Z,13.9
2017-03-03T07:44:29.009Z,13.97
2017-03-03T07:45:39.431Z,13.99
2017-03-03T07:46:49.438Z,14.2
2017-03-03T07:47:59.442Z,14.2
2017-03-03T07:49:09.818Z,14.27
2017-03-03T07:50:20.257Z,14.45
2017-03-03T07:51:30.271Z,14.49
2017-03-03T07:52:39.492Z,14.7
2017-03-03T07:53:49.884Z,14.63
2017-03-03T07:55:00.665Z,14.75
2017-03-03T07:56:11.037Z,14.75
2017-03-03T07:57:21.434Z,14.93
2017-03-03T07:58:32.212Z,15.01
2017-03-03T07:59:42.609Z,15.08
2017-03-03T08:00:52.995Z,15.16
2017-03-03T08:02:03.405Z,15.25
2017-03-03T08:03:13.881Z,15.35
2017-03-03T08:04:24.688Z,15.47
2017-03-03T08:05:35.081Z,15.59
2017-03-03T08:06:45.465Z,15.63
2017-03-03T08:07:56.278Z,15.78
2017-03-03T08:09:06.295Z,15.89
2017-03-03T08:10:16.720Z,15.96
2017-03-03T08:11:27.114Z,16.07
2017-03-03T08:12:37.522Z,16.27
2017-03-03T08:13:48.323Z,16.34
2017-03-03T08:14:59.090Z,16.39
2017-03-03T08:16:09.877Z,16.48
2017-03-03T08:17:20.266Z,16.49
2017-03-03T08:18:30.261Z,16.51
2017-03-03T08:19:41.051Z,16.57
2017-03-03T08:20:51.062Z,16.67
2017-03-03T08:22:01.464Z,16.73
2017-03-03T08:23:12.285Z,16.88
2017-03-03T08:24:21.877Z,16.91
2017-03-03T08:25:32.264Z,17.03
2017-03-03T08:26:43.079Z,17.13
2017-03-03T08:27:53.485Z,17.12
2017-03-03T08:29:03.884Z,17.18
2017-03-03T08:30:14.282Z,17.27
2017-03-03T08:31:24.293Z,17.38
2017-03-03T08:32:34.711Z,17.49
2017-03-03T08:33:45.108Z,17.5
2017-03-03T08:34:55.903Z,17.54
2017-03-03T08:36:06.287Z,17.54
2017-03-03T08:37:17.076Z,17.43
2017-03-03T08:38:27.863Z,17.45
2017-03-03T08:39:38.672Z,17.47
2017-03-03T08:40:49.071Z,17.52
2017-03-03T08:41:59.475Z,17.55
2017-03-03T08:43:09.872Z,17.66
2017-03-03T08:44:19.878Z,17.69
2017-03-03T08:45:30.267Z,17.66
2017-03-03T08:46:41.060Z,17.69
2017-03-03T08:47:51.058Z,17.73
2017-03-03T08:49:01.104Z,17.74
2017-03-03T08:50:10.753Z,17.77
2017-03-03T08:51:20.758Z,17.73
2017-03-03T08:52:31.188Z,17.79
2017-03-03T08:53:41.188Z,17.77
2017-03-03T08:54:51.587Z,17.71
2017-03-03T08:56:02.388Z,17.77
2017-03-03T08:57:13.190Z,17.69
2017-03-03T08:58:23.607Z,17.68
2017-03-03T08:59:34.024Z,17.68
2017-03-03T09:00:44.811Z,17.62
2017-03-03T09:01:55.659Z,17.6
2017-03-03T09:03:06.457Z,17.6
2017-03-03T09:04:17.266Z,17.63
2017-03-03T09:05:28.063Z,17.66
2017-03-03T09:06:38.869Z,17.71
2017-03-03T09:07:49.257Z,17.63
2017-03-03T09:08:59.673Z,17.63
2017-03-03T09:10:10.445Z,17.68
2017-03-03T09:11:21.246Z,17.81
2017-03-03T09:12:32.066Z,17.77
2017-03-03T09:13:42.845Z,17.92
2017-03-03T09:14:53.646Z,17.86
2017-03-03T09:16:03.614Z,17.84
2017-03-03T09:17:14.417Z,17.87
2017-03-03T09:18:24.783Z,17.84
2017-03-03T09:19:35.587Z,17.84
2017-03-03T09:20:46.378Z,17.9
2017-03-03T09:21:57.173Z,17.87
2017-03-03T09:23:07.981Z,17.96
2017-03-03T09:24:18.805Z,17.96
2017-03-03T09:25:29.215Z,18.05
2017-03-03T09:26:40.032Z,17.96
2017-03-03T09:27:50.831Z,17.98
2017-03-03T09:29:01.205Z,17.96
2017-03-03T09:30:11.610Z,18.05
2017-03-03T09:31:22.410Z,18.1
2017-03-03T09:32:32.804Z,18.13
2017-03-03T09:33:42.816Z,18.08
2017-03-03T09:34:53.622Z,18.14
2017-03-03T09:36:04.026Z,18.16
2017-03-03T09:37:15.044Z,18.16
2017-03-03T09:38:25.823Z,18.2
2017-03-03T09:39:36.227Z,18.21
2017-03-03T09:40:46.641Z,18.26
2017-03-03T09:41:57.017Z,18.31
2017-03-03T09:43:07.857Z,18.36
2017-03-03T09:44:18.256Z,18.38
2017-03-03T09:45:28.656Z,18.29
2017-03-03T09:46:39.454Z,18.41
2017-03-03T09:47:50.264Z,18.45
2017-03-03T09:49:01.056Z,18.53
2017-03-03T09:50:11.854Z,18.57
2017-03-03T09:51:22.235Z,18.72
2017-03-03T09:52:32.648Z,18.76
2017-03-03T09:53:43.058Z,18.86
2017-03-03T09:54:53.452Z,18.76
2017-03-03T09:56:03.835Z,18.76
2017-03-03T09:57:14.233Z,18.72
2017-03-03T09:58:24.624Z,18.75
2017-03-03T09:59:34.633Z,18.61
2017-03-03T10:00:45.429Z,18.49
2017-03-03T10:01:56.227Z,18.47
2017-03-03T10:03:06.662Z,18.47
2017-03-03T10:04:17.450Z,18.39
2017-03-03T10:05:27.845Z,18.47
2017-03-03T10:06:37.865Z,18.57
2017-03-03T10:07:48.299Z,18.47
2017-03-03T10:08:59.087Z,18.63
2017-03-03T10:10:09.868Z,18.6
2017-03-03T10:11:20.656Z,18.74
2017-03-03T10:12:31.482Z,18.71
2017-03-03T10:13:42.303Z,18.87
2017-03-03T10:14:53.128Z,18.9
2017-03-03T10:16:04.216Z,18.97
2017-03-03T10:17:15.055Z,18.97
2017-03-03T10:18:25.864Z,19.07
2017-03-03T10:19:35.531Z,19.13
2017-03-03T10:20:46.317Z,19.15
2017-03-03T10:21:56.708Z,19.12
2017-03-03T10:23:07.096Z,19.19
2017-03-03T10:24:17.082Z,19.19
2017-03-03T10:25:27.864Z,19.2
2017-03-03T10:26:38.656Z,19.27
2017-03-03T10:27:49.443Z,19.3
2017-03-03T10:29:00.254Z,19.3
2017-03-03T10:30:10.261Z,19.38
2017-03-03T10:31:20.317Z,19.42
2017-03-03T10:32:31.145Z,19.46
2017-03-03T10:33:41.546Z,19.34
2017-03-03T10:34:51.945Z,19.31
2017-03-03T10:36:02.736Z,19.19
2017-03-03T10:37:13.125Z,19.13
2017-03-03T10:38:23.511Z,19.05
2017-03-03T10:39:33.912Z,19.23
2017-03-03T10:40:44.320Z,19.31
2017-03-03T10:41:55.129Z,19.38
2017-03-03T10:43:05.556Z,19.38
2017-03-03T10:44:15.567Z,19.45
2017-03-03T10:45:25.952Z,19.55
2017-03-03T10:46:36.388Z,19.61
2017-03-03T10:47:45.984Z,19.57
2017-03-03T10:48:56.647Z,19.67
2017-03-03T10:50:07.177Z,19.75
2017-03-03T10:51:17.916Z,19.85
2017-03-03T10:52:28.962Z,19.92
2017-03-03T10:53:39.711Z,19.95
2017-03-03T10:54:50.990Z,19.98
2017-03-03T10:56:01.749Z,20.04
2017-03-03T10:57:12.512Z,20.07
2017-03-03T10:58:23.562Z,20.16
2017-03-03T10:59:34.725Z,20.16
2017-03-03T11:00:46.932Z,20.1
2017-03-03T11:01:57.821Z,20.19
2017-03-03T11:03:08.902Z,20.41
2017-03-03T11:04:20.052Z,20.49
2017-03-03T11:05:31.017Z,20.49
2017-03-03T11:06:42.279Z,20.74
2017-03-03T11:07:53.679Z,20.81
2017-03-03T11:09:04.863Z,20.85
2017-03-03T11:10:15.677Z,20.9
2017-03-03T11:11:26.856Z,20.98
2017-03-03T11:12:37.795Z,20.9
2017-03-03T11:13:48.302Z,21
2017-03-03T11:14:59.126Z,20.94
2017-03-03T11:16:09.552Z,20.93
2017-03-03T11:17:20.382Z,20.98
2017-03-03T11:18:30.000Z,21.08
2017-03-03T11:19:40.413Z,21.21
2017-03-03T11:20:51.221Z,21.15
2017-03-03T11:22:01.637Z,21.19
2017-03-03T11:23:11.650Z,21.48
2017-03-03T11:24:21.665Z,21.46
2017-03-03T11:25:31.660Z,21.56
2017-03-03T11:26:42.468Z,21.56
2017-03-03T11:27:52.875Z,21.68
2017-03-03T11:29:02.920Z,21.64
2017-03-03T11:30:13.737Z,21.64
2017-03-03T11:31:24.593Z,21.52
2017-03-03T11:32:34.652Z,21.48
2017-03-03T11:33:44.693Z,21.48
2017-03-03T11:34:55.137Z,21.48
2017-03-03T11:36:05.957Z,21.33
2017-03-03T11:37:15.578Z,21.46
2017-03-03T11:38:26.384Z,21.22
2017-03-03T11:39:36.794Z,21.18
2017-03-03T11:40:47.237Z,21.19
2017-03-03T11:41:58.054Z,21.12
2017-03-03T11:43:07.739Z,21.11
2017-03-03T11:44:18.578Z,21.09
2017-03-03T11:45:29.392Z,21.18
2017-03-03T11:46:39.416Z,21.19
2017-03-03T11:47:49.824Z,21.15
2017-03-03T11:49:00.248Z,21.34
2017-03-03T11:50:11.071Z,21.41
2017-03-03T11:51:21.473Z,21.4
2017-03-03T11:52:32.326Z,21.37
2017-03-03T11:53:42.326Z,21.37
2017-03-03T11:54:52.802Z,21.41
2017-03-03T11:56:02.847Z,21.53
2017-03-03T11:57:13.666Z,21.58
2017-03-03T11:58:24.454Z,21.58
2017-03-03T11:59:34.857Z,21.66
2017-03-03T12:00:44.070Z,21.62
2017-03-03T12:01:54.871Z,21.62
2017-03-03T12:03:05.663Z,21.58
2017-03-03T12:04:15.284Z,21.59
2017-03-03T12:05:25.301Z,21.61
2017-03-03T12:06:35.313Z,21.67
2017-03-03T12:07:45.723Z,21.59
2017-03-03T12:08:56.129Z,21.64
2017-03-03T12:10:06.552Z,21.71
2017-03-03T12:11:17.000Z,21.8
2017-03-03T12:12:27.392Z,21.82
2017-03-03T12:13:37.808Z,21.82
2017-03-03T12:14:48.261Z,21.83
2017-03-03T12:15:59.063Z,21.85
2017-03-03T12:17:09.469Z,21.74
2017-03-03T12:18:19.909Z,21.76
2017-03-03T12:19:30.740Z,21.74
2017-03-03T12:20:41.554Z,21.83
2017-03-03T12:21:51.957Z,21.92
2017-03-03T12:23:02.788Z,22
2017-03-03T12:24:13.613Z,21.82
2017-03-03T12:25:24.019Z,21.71
2017-03-03T12:26:34.813Z,21.66
2017-03-03T12:27:45.644Z,21.62
2017-03-03T12:28:56.042Z,21.67
2017-03-03T12:30:06.063Z,21.61
2017-03-03T12:31:16.851Z,21.67
2017-03-03T12:32:27.300Z,21.71
2017-03-03T12:33:37.724Z,21.71
2017-03-03T12:34:48.098Z,21.7
2017-03-03T12:35:58.906Z,21.74
2017-03-03T12:37:08.918Z,21.86
2017-03-03T12:38:19.694Z,21.99
2017-03-03T12:39:30.490Z,21.97
2017-03-03T12:40:41.302Z,21.94
2017-03-03T12:41:51.749Z,21.96
2017-03-03T12:43:02.561Z,21.9
2017-03-03T12:44:12.989Z,21.83
2017-03-03T12:45:23.438Z,21.8
2017-03-03T12:46:34.258Z,21.8
2017-03-03T12:47:44.684Z,21.74
2017-03-03T12:48:54.703Z,21.64
2017-03-03T12:50:05.486Z,21.53
2017-03-03T12:51:16.296Z,21.56
2017-03-03T12:52:27.115Z,21.52
2017-03-03T12:53:37.539Z,21.51
2017-03-03T12:54:47.958Z,21.48
2017-03-03T12:55:58.780Z,21.46
2017-03-03T12:57:09.594Z,21.53
2017-03-03T12:58:19.991Z,21.45
2017-03-03T12:59:30.011Z,21.51
2017-03-03T13:00:40.850Z,21.46
2017-03-03T13:01:51.641Z,21.36
2017-03-03T13:03:02.478Z,21.43
2017-03-03T13:04:12.101Z,21.49
2017-03-03T13:05:22.909Z,21.56
2017-03-03T13:06:33.726Z,21.56
2017-03-03T13:07:44.520Z,21.67
2017-03-03T13:08:55.365Z,21.58
2017-03-03T13:10:05.767Z,21.51
2017-03-03T13:11:16.603Z,21.48
2017-03-03T13:12:27.005Z,21.52
2017-03-03T13:13:37.406Z,21.46
2017-03-03T13:14:48.231Z,21.58
2017-03-03T13:15:58.646Z,21.59
2017-03-03T13:17:09.114Z,21.61
2017-03-03T13:18:19.923Z,21.67
2017-03-03T13:19:29.523Z,21.66
2017-03-03T13:20:39.942Z,21.64
2017-03-03T13:21:50.356Z,21.61
2017-03-03T13:23:01.153Z,21.64
2017-03-03T13:24:11.612Z,21.64
2017-03-03T13:25:22.394Z,21.67
2017-03-03T13:26:32.419Z,21.59
2017-03-03T13:27:43.221Z,21.52
2017-03-03T13:28:54.033Z,21.49
2017-03-03T13:30:04.884Z,21.52
2017-03-03T13:31:15.708Z,21.51
2017-03-03T13:32:26.490Z,21.49
2017-03-03T13:33:37.302Z,21.45
2017-03-03T13:34:48.113Z,21.48
2017-03-03T13:35:58.502Z,21.46
2017-03-03T13:37:08.902Z,21.36
2017-03-03T13:38:18.933Z,21.36
2017-03-03T13:39:29.322Z,21.31
2017-03-03T13:40:40.126Z,21.16
2017-03-03T13:41:50.967Z,21.23
2017-03-03T13:43:00.975Z,21.09
2017-03-03T13:44:11.390Z,21.04
2017-03-03T13:45:21.826Z,20.9
2017-03-03T13:46:32.239Z,20.75
2017-03-03T13:47:43.049Z,20.75
2017-03-03T13:48:53.504Z,20.83
2017-03-03T13:50:04.316Z,20.63
2017-03-03T13:51:14.711Z,20.74
2017-03-03T13:52:25.123Z,20.63
2017-03-03T13:53:34.758Z,20.6
2017-03-03T13:54:44.752Z,20.54
2017-03-03T13:55:54.373Z,20.44
2017-03-03T13:57:05.185Z,20.44
2017-03-03T13:58:15.590Z,20.46
2017-03-03T13:59:26.368Z,20.4
2017-03-03T14:00:36.781Z,20.34
2017-03-03T14:01:47.585Z,20.35
2017-03-03T14:02:58.000Z,20.42
2017-03-03T14:04:08.376Z,20.38
2017-03-03T14:05:19.184Z,20.38
2017-03-03T14:06:29.975Z,20.41
2017-03-03T14:07:39.645Z,20.35
2017-03-03T14:08:50.488Z,20.38
2017-03-03T14:10:01.325Z,20.3
2017-03-03T14:11:11.744Z,20.29
2017-03-03T14:12:22.547Z,20.23
2017-03-03T14:13:32.981Z,20.18
2017-03-03T14:14:43.786Z,20.08
2017-03-03T14:15:54.204Z,20.12
2017-03-03T14:17:04.609Z,20.01
2017-03-03T14:18:14.651Z,20.1
2017-03-03T14:19:25.064Z,20
2017-03-03T14:20:35.888Z,20.07
2017-03-03T14:21:46.666Z,20.01
2017-03-03T14:22:57.480Z,19.98
2017-03-03T14:24:07.901Z,19.98
2017-03-03T14:25:18.339Z,20
2017-03-03T14:26:29.139Z,20
2017-03-03T14:27:39.945Z,20.01
2017-03-03T14:28:50.766Z,20.01
2017-03-03T14:30:01.167Z,20
2017-03-03T14:31:11.984Z,20.02
2017-03-03T14:32:22.800Z,20
2017-03-03T14:33:33.224Z,19.86
2017-03-03T14:34:43.623Z,19.83
2017-03-03T14:35:54.018Z,19.75
2017-03-03T14:37:04.859Z,19.65
2017-03-03T14:38:14.911Z,19.55
2017-03-03T14:39:25.140Z,19.6
2017-03-03T14:40:35.941Z,19.52
2017-03-03T14:41:46.734Z,19.42
2017-03-03T14:42:57.152Z,19.46
2017-03-03T14:44:07.975Z,19.34
2017-03-03T14:45:18.767Z,19.3
2017-03-03T14:46:29.175Z,19.28
2017-03-03T14:47:39.577Z,19.31
2017-03-03T14:48:50.007Z,19.24
2017-03-03T14:49:59.645Z,19.24
2017-03-03T14:51:10.088Z,19.2
2017-03-03T14:52:19.723Z,19.06
2017-03-03T14:53:30.514Z,19.12
2017-03-03T14:54:40.911Z,18.94
2017-03-03T14:55:50.540Z,18.97
2017-03-03T14:57:00.968Z,18.96
2017-03-03T14:58:11.775Z,18.9
2017-03-03T14:59:22.574Z,18.79
2017-03-03T15:00:33.358Z,18.9
2017-03-03T15:01:43.795Z,18.84
2017-03-03T15:02:54.251Z,18.86
2017-03-03T15:04:05.038Z,18.79
2017-03-03T15:05:15.857Z,18.79
2017-03-03T15:06:25.884Z,18.63
2017-03-03T15:07:36.305Z,18.61
2017-03-03T15:08:47.101Z,18.63
2017-03-03T15:09:57.538Z,18.47
2017-03-03T15:11:07.592Z,18.47
2017-03-03T15:12:18.035Z,18.39
2017-03-03T15:13:28.823Z,18.49
2017-03-03T15:14:39.228Z,18.32
2017-03-03T15:15:50.053Z,18.34
2017-03-03T15:17:00.451Z,18.2
2017-03-03T15:18:11.246Z,18.17
2017-03-03T15:19:22.323Z,18.13
2017-03-03T15:20:33.125Z,18.1
2017-03-03T15:21:43.578Z,18.05
2017-03-03T15:22:54.394Z,18.1
2017-03-03T15:24:04.047Z,17.94
2017-03-03T15:25:14.465Z,17.87
2017-03-03T15:26:24.530Z,17.88
2017-03-03T15:27:34.949Z,17.77
2017-03-03T15:28:45.375Z,17.77
2017-03-03T15:29:55.788Z,17.79
2017-03-03T15:31:06.208Z,17.76
2017-03-03T15:32:16.215Z,17.74
2017-03-03T15:33:27.027Z,17.77
2017-03-03T15:34:37.861Z,17.69
2017-03-03T15:35:48.240Z,17.69
2017-03-03T15:36:59.097Z,17.68
2017-03-03T15:38:09.127Z,17.73
2017-03-03T15:39:19.927Z,17.71
2017-03-03T15:40:30.344Z,17.66
2017-03-03T15:41:41.179Z,17.52
2017-03-03T15:42:52.047Z,17.57
2017-03-03T15:44:02.473Z,17.5
2017-03-03T15:45:13.308Z,17.49
2017-03-03T15:46:24.147Z,17.42
2017-03-03T15:47:34.937Z,17.45
2017-03-03T15:48:45.350Z,17.43
2017-03-03T15:49:56.172Z,17.32
2017-03-03T15:51:06.959Z,17.36
2017-03-03T15:52:17.409Z,17.39
2017-03-03T15:53:27.471Z,17.21
2017-03-03T15:54:37.891Z,17.21
2017-03-03T15:55:48.305Z,17.21
2017-03-03T15:56:59.106Z,17.12
2017-03-03T15:58:09.907Z,17.13